sensor_id;sensor_type;location;lat;lon;timestamp;temperature;humidity
16198;DHT22;8206;51.440;6.914;2022-09-09T00:01:00;15.20;1.00
16198;DHT22;8206;51.440;6.914;2022-09-09T00:03:36;15.20;1.00
16198;DHT22;8206;51.440;6.914;2022-09-09T00:06:10;15.10;1.00
16198;DHT22;8206;51.440;6.914;2022-09-09T00:08:47;15.00;1.00
16198;DHT22;8206;51.440;6.914;2022-09-09T00:11:21;15.00;1.00
16198;DHT22;8206;51.440;6.914;2022-09-09T00:13:52;15.00;23.90
16198;DHT22;8206;51.440;6.914;2022-09-09T00:16:24;15.10;1.00
16198;DHT22;8206;51.440;6.914;2022-09-09T00:18:57;15.00;41.00
16198;DHT22;8206;51.440;6.914;2022-09-09T00:21:30;15.10;1.00
16198;DHT22;8206;51.440;6.914;2022-09-09T00:24:01;15.00;1.00
16198;DHT22;8206;51.440;6.914;2022-09-09T00:26:38;15.10;99.90
16198;DHT22;8206;51.440;6.914;2022-09-09T00:29:14;15.10;99.90
16198;DHT22;8206;51.440;6.914;2022-09-09T00:31:44;15.00;99.90
16198;DHT22;8206;51.440;6.914;2022-09-09T00:34:14;15.00;10.40
16198;DHT22;8206;51.440;6.914;2022-09-09T00:36:42;14.80;1.00
16198;DHT22;8206;51.440;6.914;2022-09-09T00:39:16;14.70;1.00
16198;DHT22;8206;51.440;6.914;2022-09-09T00:41:54;14.60;99.90
16198;DHT22;8206;51.440;6.914;2022-09-09T00:44:30;14.60;1.00
16198;DHT22;8206;51.440;6.914;2022-09-09T00:47:23;14.60;1.00
16198;DHT22;8206;51.440;6.914;2022-09-09T00:50:00;14.80;1.00
16198;DHT22;8206;51.440;6.914;2022-09-09T00:52:35;14.80;1.00
16198;DHT22;8206;51.440;6.914;2022-09-09T00:55:10;14.90;1.00
16198;DHT22;8206;51.440;6.914;2022-09-09T00:57:38;15.00;1.00
16198;DHT22;8206;51.440;6.914;2022-09-09T01:00:19;15.00;1.00
16198;DHT22;8206;51.440;6.914;2022-09-09T01:02:53;15.10;1.00
16198;DHT22;8206;51.440;6.914;2022-09-09T01:05:29;15.10;1.00
16198;DHT22;8206;51.440;6.914;2022-09-09T01:07:58;15.20;99.90
16198;DHT22;8206;51.440;6.914;2022-09-09T01:10:35;15.20;1.00
16198;DHT22;8206;51.440;6.914;2022-09-09T01:13:11;15.20;99.90
16198;DHT22;8206;51.440;6.914;2022-09-09T01:15:41;15.10;99.90
16198;DHT22;8206;51.440;6.914;2022-09-09T01:18:15;15.10;1.00
16198;DHT22;8206;51.440;6.914;2022-09-09T01:20:49;15.00;1.00
16198;DHT22;8206;51.440;6.914;2022-09-09T01:23:34;14.80;99.90
16198;DHT22;8206;51.440;6.914;2022-09-09T01:26:15;14.70;1.00
16198;DHT22;8206;51.440;6.914;2022-09-09T01:28:44;14.70;1.00
16198;DHT22;8206;51.440;6.914;2022-09-09T01:31:15;14.50;1.00
16198;DHT22;8206;51.440;6.914;2022-09-09T01:33:43;14.50;1.00
16198;DHT22;8206;51.440;6.914;2022-09-09T01:36:13;14.50;1.00
16198;DHT22;8206;51.440;6.914;2022-09-09T01:38:42;14.40;1.00
16198;DHT22;8206;51.440;6.914;2022-09-09T01:41:10;14.40;1.00
16198;DHT22;8206;51.440;6.914;2022-09-09T01:43:37;14.40;1.00
16198;DHT22;8206;51.440;6.914;2022-09-09T01:46:04;14.40;14.90
16198;DHT22;8206;51.440;6.914;2022-09-09T01:48:31;14.30;25.30
16198;DHT22;8206;51.440;6.914;2022-09-09T01:50:58;14.30;35.50
16198;DHT22;8206;51.440;6.914;2022-09-09T01:53:25;14.30;53.30
16198;DHT22;8206;51.440;6.914;2022-09-09T01:56:00;14.20;63.60
16198;DHT22;8206;51.440;6.914;2022-09-09T01:58:36;14.20;78.50
16198;DHT22;8206;51.440;6.914;2022-09-09T02:01:12;14.20;90.40
16198;DHT22;8206;51.440;6.914;2022-09-09T02:03:47;14.20;93.50
16198;DHT22;8206;51.440;6.914;2022-09-09T02:06:25;14.20;99.10
16198;DHT22;8206;51.440;6.914;2022-09-09T02:08:56;14.20;99.20
16198;DHT22;8206;51.440;6.914;2022-09-09T02:11:25;14.10;99.90
16198;DHT22;8206;51.440;6.914;2022-09-09T02:13:57;14.20;99.90
16198;DHT22;8206;51.440;6.914;2022-09-09T02:16:28;14.20;99.90
16198;DHT22;8206;51.440;6.914;2022-09-09T02:19:01;14.20;99.90
16198;DHT22;8206;51.440;6.914;2022-09-09T02:21:29;14.30;99.90
16198;DHT22;8206;51.440;6.914;2022-09-09T02:23:59;14.30;99.90
16198;DHT22;8206;51.440;6.914;2022-09-09T02:26:30;14.50;99.90
16198;DHT22;8206;51.440;6.914;2022-09-09T02:29:02;14.50;99.90
16198;DHT22;8206;51.440;6.914;2022-09-09T02:31:30;14.60;99.90
16198;DHT22;8206;51.440;6.914;2022-09-09T02:34:01;14.70;98.90
16198;DHT22;8206;51.440;6.914;2022-09-09T02:36:32;14.80;95.40
16198;DHT22;8206;51.440;6.914;2022-09-09T02:39:00;14.90;95.20
16198;DHT22;8206;51.440;6.914;2022-09-09T02:41:31;14.90;95.20
16198;DHT22;8206;51.440;6.914;2022-09-09T02:44:00;15.00;94.10
16198;DHT22;8206;51.440;6.914;2022-09-09T02:46:36;15.00;92.00
16198;DHT22;8206;51.440;6.914;2022-09-09T02:49:09;15.00;90.50
16198;DHT22;8206;51.440;6.914;2022-09-09T02:51:43;15.10;90.50
16198;DHT22;8206;51.440;6.914;2022-09-09T02:54:16;15.10;81.70
16198;DHT22;8206;51.440;6.914;2022-09-09T02:56:50;15.10;81.40
16198;DHT22;8206;51.440;6.914;2022-09-09T02:59:20;15.00;81.80
16198;DHT22;8206;51.440;6.914;2022-09-09T03:01:47;15.00;83.70
16198;DHT22;8206;51.440;6.914;2022-09-09T03:04:14;15.00;79.60
16198;DHT22;8206;51.440;6.914;2022-09-09T03:06:40;14.90;84.00
16198;DHT22;8206;51.440;6.914;2022-09-09T03:09:08;14.80;90.60
16198;DHT22;8206;51.440;6.914;2022-09-09T03:11:36;14.80;96.10
16198;DHT22;8206;51.440;6.914;2022-09-09T03:14:03;14.80;98.40
16198;DHT22;8206;51.440;6.914;2022-09-09T03:16:32;14.60;99.90
16198;DHT22;8206;51.440;6.914;2022-09-09T03:18:59;14.60;99.90
16198;DHT22;8206;51.440;6.914;2022-09-09T03:21:26;14.60;99.90
16198;DHT22;8206;51.440;6.914;2022-09-09T03:23:53;14.50;99.90
16198;DHT22;8206;51.440;6.914;2022-09-09T03:26:20;14.40;99.90
16198;DHT22;8206;51.440;6.914;2022-09-09T03:28:46;14.50;99.90
16198;DHT22;8206;51.440;6.914;2022-09-09T03:31:13;14.40;99.90
16198;DHT22;8206;51.440;6.914;2022-09-09T03:33:41;14.40;99.90
16198;DHT22;8206;51.440;6.914;2022-09-09T03:36:08;14.40;99.90
16198;DHT22;8206;51.440;6.914;2022-09-09T03:38:35;14.40;99.90
16198;DHT22;8206;51.440;6.914;2022-09-09T03:41:02;14.50;99.90
16198;DHT22;8206;51.440;6.914;2022-09-09T03:43:31;14.50;99.90
16198;DHT22;8206;51.440;6.914;2022-09-09T03:45:58;14.50;99.90
16198;DHT22;8206;51.440;6.914;2022-09-09T03:48:25;14.60;99.90
16198;DHT22;8206;51.440;6.914;2022-09-09T03:50:55;14.70;99.90
16198;DHT22;8206;51.440;6.914;2022-09-09T03:53:24;14.70;99.90
16198;DHT22;8206;51.440;6.914;2022-09-09T03:55:53;14.70;99.90
16198;DHT22;8206;51.440;6.914;2022-09-09T03:58:21;14.70;99.90
16198;DHT22;8206;51.440;6.914;2022-09-09T04:00:59;14.70;99.90
16198;DHT22;8206;51.440;6.914;2022-09-09T04:03:27;14.70;99.90
16198;DHT22;8206;51.440;6.914;2022-09-09T04:05:58;14.60;99.90
16198;DHT22;8206;51.440;6.914;2022-09-09T04:08:25;14.60;99.90
16198;DHT22;8206;51.440;6.914;2022-09-09T04:10:52;14.50;99.90
16198;DHT22;8206;51.440;6.914;2022-09-09T04:13:24;14.50;99.90
16198;DHT22;8206;51.440;6.914;2022-09-09T04:15:51;14.50;99.90
16198;DHT22;8206;51.440;6.914;2022-09-09T04:18:18;14.40;99.90
16198;DHT22;8206;51.440;6.914;2022-09-09T04:20:46;14.40;99.90
16198;DHT22;8206;51.440;6.914;2022-09-09T04:23:14;14.40;99.90
16198;DHT22;8206;51.440;6.914;2022-09-09T04:25:44;14.40;99.90
16198;DHT22;8206;51.440;6.914;2022-09-09T04:28:11;14.30;99.90
16198;DHT22;8206;51.440;6.914;2022-09-09T04:30:38;14.30;99.90
16198;DHT22;8206;51.440;6.914;2022-09-09T04:33:06;14.30;99.90
16198;DHT22;8206;51.440;6.914;2022-09-09T04:35:33;14.40;99.90
16198;DHT22;8206;51.440;6.914;2022-09-09T04:38:00;14.40;99.90
16198;DHT22;8206;51.440;6.914;2022-09-09T04:40:29;14.40;99.90
16198;DHT22;8206;51.440;6.914;2022-09-09T04:42:58;14.40;99.90
16198;DHT22;8206;51.440;6.914;2022-09-09T04:45:24;14.50;99.90
16198;DHT22;8206;51.440;6.914;2022-09-09T04:47:52;14.60;99.90
16198;DHT22;8206;51.440;6.914;2022-09-09T04:50:19;14.60;99.90
16198;DHT22;8206;51.440;6.914;2022-09-09T04:52:46;14.70;99.90
16198;DHT22;8206;51.440;6.914;2022-09-09T04:55:14;14.80;99.90
16198;DHT22;8206;51.440;6.914;2022-09-09T04:57:42;14.80;99.90
16198;DHT22;8206;51.440;6.914;2022-09-09T05:00:10;14.90;99.90
16198;DHT22;8206;51.440;6.914;2022-09-09T05:02:38;14.90;99.90
16198;DHT22;8206;51.440;6.914;2022-09-09T05:05:06;14.90;99.90
16198;DHT22;8206;51.440;6.914;2022-09-09T05:07:34;14.90;99.90
16198;DHT22;8206;51.440;6.914;2022-09-09T05:10:01;15.00;99.90
16198;DHT22;8206;51.440;6.914;2022-09-09T05:12:31;15.00;99.90
16198;DHT22;8206;51.440;6.914;2022-09-09T05:14:59;15.10;99.90
16198;DHT22;8206;51.440;6.914;2022-09-09T05:17:26;15.00;99.90
16198;DHT22;8206;51.440;6.914;2022-09-09T05:19:53;15.10;99.90
16198;DHT22;8206;51.440;6.914;2022-09-09T05:22:20;15.00;99.90
16198;DHT22;8206;51.440;6.914;2022-09-09T05:24:48;15.10;99.90
16198;DHT22;8206;51.440;6.914;2022-09-09T05:27:16;15.00;99.90
16198;DHT22;8206;51.440;6.914;2022-09-09T05:29:45;15.10;99.90
16198;DHT22;8206;51.440;6.914;2022-09-09T05:32:13;15.00;99.90
16198;DHT22;8206;51.440;6.914;2022-09-09T05:34:40;15.10;99.90
16198;DHT22;8206;51.440;6.914;2022-09-09T05:37:07;15.20;99.90
16198;DHT22;8206;51.440;6.914;2022-09-09T05:39:34;15.20;99.90
16198;DHT22;8206;51.440;6.914;2022-09-09T05:42:02;15.30;99.90
16198;DHT22;8206;51.440;6.914;2022-09-09T05:44:30;15.40;99.90
16198;DHT22;8206;51.440;6.914;2022-09-09T05:46:57;15.40;99.20
16198;DHT22;8206;51.440;6.914;2022-09-09T05:49:25;15.40;95.90
16198;DHT22;8206;51.440;6.914;2022-09-09T05:51:52;15.60;94.30
16198;DHT22;8206;51.440;6.914;2022-09-09T05:54:19;15.60;93.00
16198;DHT22;8206;51.440;6.914;2022-09-09T05:56:46;15.60;83.00
16198;DHT22;8206;51.440;6.914;2022-09-09T05:59:15;15.70;87.20
16198;DHT22;8206;51.440;6.914;2022-09-09T06:01:41;15.70;75.60
16198;DHT22;8206;51.440;6.914;2022-09-09T06:04:08;15.80;62.40
16198;DHT22;8206;51.440;6.914;2022-09-09T06:06:37;15.90;61.10
16198;DHT22;8206;51.440;6.914;2022-09-09T06:09:06;16.00;42.10
16198;DHT22;8206;51.440;6.914;2022-09-09T06:11:36;16.00;24.70
16198;DHT22;8206;51.440;6.914;2022-09-09T06:14:04;16.20;1.30
16198;DHT22;8206;51.440;6.914;2022-09-09T06:16:32;16.20;1.00
16198;DHT22;8206;51.440;6.914;2022-09-09T06:19:00;16.20;1.00
16198;DHT22;8206;51.440;6.914;2022-09-09T06:21:29;16.40;1.00
16198;DHT22;8206;51.440;6.914;2022-09-09T06:23:59;16.50;1.00
16198;DHT22;8206;51.440;6.914;2022-09-09T06:26:29;16.60;1.00
16198;DHT22;8206;51.440;6.914;2022-09-09T06:28:56;16.60;1.00
16198;DHT22;8206;51.440;6.914;2022-09-09T06:31:25;16.70;1.00
16198;DHT22;8206;51.440;6.914;2022-09-09T06:33:53;16.70;1.00
16198;DHT22;8206;51.440;6.914;2022-09-09T06:36:22;16.70;1.00
16198;DHT22;8206;51.440;6.914;2022-09-09T06:38:48;16.60;1.00
16198;DHT22;8206;51.440;6.914;2022-09-09T06:41:18;16.60;1.00
16198;DHT22;8206;51.440;6.914;2022-09-09T06:43:46;16.60;1.00
16198;DHT22;8206;51.440;6.914;2022-09-09T06:46:14;16.80;1.00
16198;DHT22;8206;51.440;6.914;2022-09-09T06:48:41;16.80;1.00
16198;DHT22;8206;51.440;6.914;2022-09-09T06:51:11;16.90;1.00
16198;DHT22;8206;51.440;6.914;2022-09-09T06:53:40;17.00;1.00
16198;DHT22;8206;51.440;6.914;2022-09-09T06:56:19;17.10;1.00
16198;DHT22;8206;51.440;6.914;2022-09-09T06:58:47;17.20;1.00
16198;DHT22;8206;51.440;6.914;2022-09-09T07:01:16;17.30;1.00
16198;DHT22;8206;51.440;6.914;2022-09-09T07:03:45;17.60;1.00
16198;DHT22;8206;51.440;6.914;2022-09-09T07:06:15;17.80;1.00
16198;DHT22;8206;51.440;6.914;2022-09-09T07:08:43;17.90;1.00
16198;DHT22;8206;51.440;6.914;2022-09-09T07:11:10;18.10;1.00
16198;DHT22;8206;51.440;6.914;2022-09-09T07:13:38;18.50;99.90
16198;DHT22;8206;51.440;6.914;2022-09-09T07:16:06;18.90;99.90
16198;DHT22;8206;51.440;6.914;2022-09-09T07:18:34;19.40;99.90
16198;DHT22;8206;51.440;6.914;2022-09-09T07:21:02;19.60;99.90
16198;DHT22;8206;51.440;6.914;2022-09-09T07:23:29;19.70;99.90
16198;DHT22;8206;51.440;6.914;2022-09-09T07:25:56;19.90;99.90
16198;DHT22;8206;51.440;6.914;2022-09-09T07:28:23;20.00;99.90
16198;DHT22;8206;51.440;6.914;2022-09-09T07:30:56;20.00;99.90
16198;DHT22;8206;51.440;6.914;2022-09-09T07:33:23;20.10;99.90
16198;DHT22;8206;51.440;6.914;2022-09-09T07:35:51;20.10;99.90
16198;DHT22;8206;51.440;6.914;2022-09-09T07:38:18;20.20;99.90
16198;DHT22;8206;51.440;6.914;2022-09-09T07:40:45;20.30;99.90
16198;DHT22;8206;51.440;6.914;2022-09-09T07:43:11;20.40;99.90
16198;DHT22;8206;51.440;6.914;2022-09-09T07:45:38;20.10;99.90
16198;DHT22;8206;51.440;6.914;2022-09-09T07:48:08;19.90;99.90
16198;DHT22;8206;51.440;6.914;2022-09-09T07:50:36;19.90;99.90
16198;DHT22;8206;51.440;6.914;2022-09-09T07:53:03;19.90;99.90
16198;DHT22;8206;51.440;6.914;2022-09-09T07:55:31;19.80;99.90
16198;DHT22;8206;51.440;6.914;2022-09-09T07:57:58;19.80;99.90
16198;DHT22;8206;51.440;6.914;2022-09-09T08:00:25;20.10;99.90
16198;DHT22;8206;51.440;6.914;2022-09-09T08:02:53;20.40;99.90
16198;DHT22;8206;51.440;6.914;2022-09-09T08:05:22;20.30;99.90
16198;DHT22;8206;51.440;6.914;2022-09-09T08:07:49;20.10;99.90
16198;DHT22;8206;51.440;6.914;2022-09-09T08:10:16;19.80;99.90
16198;DHT22;8206;51.440;6.914;2022-09-09T08:12:43;19.80;99.90
16198;DHT22;8206;51.440;6.914;2022-09-09T08:15:10;19.90;99.90
16198;DHT22;8206;51.440;6.914;2022-09-09T08:17:37;19.90;99.90
16198;DHT22;8206;51.440;6.914;2022-09-09T08:20:05;20.00;99.90
16198;DHT22;8206;51.440;6.914;2022-09-09T08:22:33;20.20;99.90
16198;DHT22;8206;51.440;6.914;2022-09-09T08:25:00;20.40;99.90
16198;DHT22;8206;51.440;6.914;2022-09-09T08:27:27;20.40;99.90
16198;DHT22;8206;51.440;6.914;2022-09-09T08:29:54;20.40;99.90
16198;DHT22;8206;51.440;6.914;2022-09-09T08:32:21;20.20;99.90
16198;DHT22;8206;51.440;6.914;2022-09-09T08:34:48;20.10;99.90
16198;DHT22;8206;51.440;6.914;2022-09-09T08:37:15;20.10;99.90
16198;DHT22;8206;51.440;6.914;2022-09-09T08:39:43;20.50;99.90
16198;DHT22;8206;51.440;6.914;2022-09-09T08:42:29;20.70;99.90
16198;DHT22;8206;51.440;6.914;2022-09-09T08:45:19;20.80;99.90
16198;DHT22;8206;51.440;6.914;2022-09-09T08:47:57;21.10;99.90
16198;DHT22;8206;51.440;6.914;2022-09-09T08:50:29;20.70;99.90
16198;DHT22;8206;51.440;6.914;2022-09-09T08:53:02;20.20;99.90
16198;DHT22;8206;51.440;6.914;2022-09-09T08:55:39;19.90;99.90
16198;DHT22;8206;51.440;6.914;2022-09-09T08:58:12;19.80;99.90
16198;DHT22;8206;51.440;6.914;2022-09-09T09:03:33;19.90;99.90
16198;DHT22;8206;51.440;6.914;2022-09-09T09:06:06;20.00;99.90
16198;DHT22;8206;51.440;6.914;2022-09-09T09:08:43;20.10;99.90
16198;DHT22;8206;51.440;6.914;2022-09-09T09:11:13;20.20;99.90
16198;DHT22;8206;51.440;6.914;2022-09-09T09:13:43;20.30;99.90
16198;DHT22;8206;51.440;6.914;2022-09-09T09:16:18;20.30;99.90
16198;DHT22;8206;51.440;6.914;2022-09-09T09:18:46;20.50;99.90
16198;DHT22;8206;51.440;6.914;2022-09-09T09:21:15;20.60;99.90
16198;DHT22;8206;51.440;6.914;2022-09-09T09:23:48;20.80;99.90
16198;DHT22;8206;51.440;6.914;2022-09-09T09:26:18;20.80;99.90
16198;DHT22;8206;51.440;6.914;2022-09-09T09:28:46;20.90;99.90
16198;DHT22;8206;51.440;6.914;2022-09-09T09:31:13;20.80;99.90
16198;DHT22;8206;51.440;6.914;2022-09-09T09:33:47;20.60;99.90
16198;DHT22;8206;51.440;6.914;2022-09-09T09:36:15;20.40;99.90
16198;DHT22;8206;51.440;6.914;2022-09-09T09:38:52;20.40;99.90
16198;DHT22;8206;51.440;6.914;2022-09-09T09:41:31;20.30;99.90
16198;DHT22;8206;51.440;6.914;2022-09-09T09:43:59;20.30;99.90
16198;DHT22;8206;51.440;6.914;2022-09-09T09:46:27;20.50;99.90
16198;DHT22;8206;51.440;6.914;2022-09-09T09:48:58;20.50;99.90
16198;DHT22;8206;51.440;6.914;2022-09-09T09:51:26;20.40;99.90
16198;DHT22;8206;51.440;6.914;2022-09-09T09:53:54;20.40;99.90
16198;DHT22;8206;51.440;6.914;2022-09-09T09:56:32;20.40;99.90
16198;DHT22;8206;51.440;6.914;2022-09-09T09:58:59;20.30;99.90
16198;DHT22;8206;51.440;6.914;2022-09-09T10:01:27;20.20;99.90
16198;DHT22;8206;51.440;6.914;2022-09-09T10:03:58;20.10;99.90
16198;DHT22;8206;51.440;6.914;2022-09-09T10:06:32;20.00;99.90
16198;DHT22;8206;51.440;6.914;2022-09-09T10:09:01;20.00;99.90
16198;DHT22;8206;51.440;6.914;2022-09-09T10:11:39;20.10;99.90
16198;DHT22;8206;51.440;6.914;2022-09-09T10:14:17;20.70;99.90
16198;DHT22;8206;51.440;6.914;2022-09-09T10:16:55;21.20;99.90
16198;DHT22;8206;51.440;6.914;2022-09-09T10:19:30;21.30;99.90
16198;DHT22;8206;51.440;6.914;2022-09-09T10:22:12;21.40;99.90
16198;DHT22;8206;51.440;6.914;2022-09-09T10:24:56;21.30;99.90
16198;DHT22;8206;51.440;6.914;2022-09-09T10:27:35;21.30;99.90
16198;DHT22;8206;51.440;6.914;2022-09-09T10:30:18;21.30;99.90
16198;DHT22;8206;51.440;6.914;2022-09-09T10:32:48;21.50;99.90
16198;DHT22;8206;51.440;6.914;2022-09-09T10:35:29;21.50;99.90
16198;DHT22;8206;51.440;6.914;2022-09-09T10:38:13;21.50;99.90
16198;DHT22;8206;51.440;6.914;2022-09-09T10:40:48;21.40;99.90
16198;DHT22;8206;51.440;6.914;2022-09-09T10:43:36;21.40;99.90
16198;DHT22;8206;51.440;6.914;2022-09-09T10:46:12;21.30;99.90
16198;DHT22;8206;51.440;6.914;2022-09-09T10:48:59;21.40;99.90
16198;DHT22;8206;51.440;6.914;2022-09-09T10:51:38;21.50;99.90
16198;DHT22;8206;51.440;6.914;2022-09-09T10:54:17;21.20;99.90
16198;DHT22;8206;51.440;6.914;2022-09-09T10:56:52;21.10;99.90
16198;DHT22;8206;51.440;6.914;2022-09-09T10:59:25;21.00;99.90
16198;DHT22;8206;51.440;6.914;2022-09-09T11:01:57;21.10;99.90
16198;DHT22;8206;51.440;6.914;2022-09-09T11:04:29;21.50;99.90
16198;DHT22;8206;51.440;6.914;2022-09-09T11:07:02;22.10;99.90
16198;DHT22;8206;51.440;6.914;2022-09-09T11:09:36;22.30;99.90
16198;DHT22;8206;51.440;6.914;2022-09-09T11:12:05;22.60;99.90
16198;DHT22;8206;51.440;6.914;2022-09-09T11:14:43;22.70;99.90
16198;DHT22;8206;51.440;6.914;2022-09-09T11:17:13;22.70;99.90
16198;DHT22;8206;51.440;6.914;2022-09-09T11:19:43;22.70;99.90
16198;DHT22;8206;51.440;6.914;2022-09-09T11:22:17;22.30;99.90
16198;DHT22;8206;51.440;6.914;2022-09-09T11:24:50;22.20;99.90
16198;DHT22;8206;51.440;6.914;2022-09-09T11:27:23;22.30;99.90
16198;DHT22;8206;51.440;6.914;2022-09-09T11:30:16;22.00;99.90
16198;DHT22;8206;51.440;6.914;2022-09-09T11:33:00;21.90;99.90
16198;DHT22;8206;51.440;6.914;2022-09-09T11:35:37;21.70;99.90
16198;DHT22;8206;51.440;6.914;2022-09-09T11:38:26;21.80;99.90
16198;DHT22;8206;51.440;6.914;2022-09-09T11:40:58;22.00;99.90
16198;DHT22;8206;51.440;6.914;2022-09-09T11:43:29;22.00;99.90
16198;DHT22;8206;51.440;6.914;2022-09-09T11:46:01;21.80;99.90
16198;DHT22;8206;51.440;6.914;2022-09-09T11:48:33;21.60;99.90
16198;DHT22;8206;51.440;6.914;2022-09-09T11:51:03;21.50;99.90
16198;DHT22;8206;51.440;6.914;2022-09-09T11:53:31;21.40;99.90
16198;DHT22;8206;51.440;6.914;2022-09-09T11:56:07;21.20;99.90
16198;DHT22;8206;51.440;6.914;2022-09-09T11:58:40;21.00;99.90
16198;DHT22;8206;51.440;6.914;2022-09-09T12:01:28;21.10;99.90
16198;DHT22;8206;51.440;6.914;2022-09-09T12:04:04;21.00;99.90
16198;DHT22;8206;51.440;6.914;2022-09-09T12:06:33;21.10;99.90
16198;DHT22;8206;51.440;6.914;2022-09-09T12:09:15;21.40;99.90
16198;DHT22;8206;51.440;6.914;2022-09-09T12:11:43;21.90;99.90
16198;DHT22;8206;51.440;6.914;2022-09-09T12:14:20;22.50;99.90
16198;DHT22;8206;51.440;6.914;2022-09-09T12:16:49;22.80;99.90
16198;DHT22;8206;51.440;6.914;2022-09-09T12:19:19;22.80;99.90
16198;DHT22;8206;51.440;6.914;2022-09-09T12:21:51;22.50;99.90
16198;DHT22;8206;51.440;6.914;2022-09-09T12:24:26;22.30;99.90
16198;DHT22;8206;51.440;6.914;2022-09-09T12:27:01;21.80;99.90
16198;DHT22;8206;51.440;6.914;2022-09-09T12:29:40;21.60;99.90
16198;DHT22;8206;51.440;6.914;2022-09-09T12:32:12;21.40;99.90
16198;DHT22;8206;51.440;6.914;2022-09-09T12:34:46;21.10;99.90
16198;DHT22;8206;51.440;6.914;2022-09-09T12:37:20;21.10;99.90
16198;DHT22;8206;51.440;6.914;2022-09-09T12:39:52;21.50;99.90
16198;DHT22;8206;51.440;6.914;2022-09-09T12:42:21;21.90;99.90
16198;DHT22;8206;51.440;6.914;2022-09-09T12:44:53;22.10;99.90
16198;DHT22;8206;51.440;6.914;2022-09-09T12:47:31;22.30;99.90
16198;DHT22;8206;51.440;6.914;2022-09-09T12:50:00;22.10;99.90
16198;DHT22;8206;51.440;6.914;2022-09-09T12:52:30;21.90;99.90
16198;DHT22;8206;51.440;6.914;2022-09-09T12:55:00;21.50;99.90
16198;DHT22;8206;51.440;6.914;2022-09-09T12:57:34;21.20;99.90
16198;DHT22;8206;51.440;6.914;2022-09-09T13:00:07;20.90;99.90
16198;DHT22;8206;51.440;6.914;2022-09-09T13:02:47;20.60;99.90
16198;DHT22;8206;51.440;6.914;2022-09-09T13:05:18;20.10;99.90
16198;DHT22;8206;51.440;6.914;2022-09-09T13:07:45;19.80;99.90
16198;DHT22;8206;51.440;6.914;2022-09-09T13:10:14;19.40;99.90
16198;DHT22;8206;51.440;6.914;2022-09-09T13:12:42;19.20;99.90
16198;DHT22;8206;51.440;6.914;2022-09-09T13:15:16;18.90;99.90
16198;DHT22;8206;51.440;6.914;2022-09-09T13:17:54;18.70;99.90
16198;DHT22;8206;51.440;6.914;2022-09-09T13:20:22;18.60;99.90
16198;DHT22;8206;51.440;6.914;2022-09-09T13:22:51;18.80;99.90
16198;DHT22;8206;51.440;6.914;2022-09-09T13:25:21;19.00;99.90
16198;DHT22;8206;51.440;6.914;2022-09-09T13:27:58;19.10;99.90
16198;DHT22;8206;51.440;6.914;2022-09-09T13:30:27;19.30;99.90
16198;DHT22;8206;51.440;6.914;2022-09-09T13:33:06;19.40;99.90
16198;DHT22;8206;51.440;6.914;2022-09-09T13:35:33;19.60;99.90
16198;DHT22;8206;51.440;6.914;2022-09-09T13:38:07;19.80;99.90
16198;DHT22;8206;51.440;6.914;2022-09-09T13:40:35;19.70;99.90
16198;DHT22;8206;51.440;6.914;2022-09-09T13:43:02;19.90;99.90
16198;DHT22;8206;51.440;6.914;2022-09-09T13:45:31;20.20;99.90
16198;DHT22;8206;51.440;6.914;2022-09-09T13:48:10;20.30;99.90
16198;DHT22;8206;51.440;6.914;2022-09-09T13:50:39;20.50;99.90
16198;DHT22;8206;51.440;6.914;2022-09-09T13:53:07;20.50;99.90
16198;DHT22;8206;51.440;6.914;2022-09-09T13:55:36;20.70;99.90
16198;DHT22;8206;51.440;6.914;2022-09-09T13:58:04;20.70;99.90
16198;DHT22;8206;51.440;6.914;2022-09-09T14:00:33;21.00;99.90
16198;DHT22;8206;51.440;6.914;2022-09-09T14:03:00;21.10;99.90
16198;DHT22;8206;51.440;6.914;2022-09-09T14:05:30;21.20;99.90
16198;DHT22;8206;51.440;6.914;2022-09-09T14:07:58;21.30;99.90
16198;DHT22;8206;51.440;6.914;2022-09-09T14:10:26;21.30;99.90
16198;DHT22;8206;51.440;6.914;2022-09-09T14:12:52;21.30;99.90
16198;DHT22;8206;51.440;6.914;2022-09-09T14:15:19;21.40;99.90
16198;DHT22;8206;51.440;6.914;2022-09-09T14:17:47;21.50;99.90
16198;DHT22;8206;51.440;6.914;2022-09-09T14:20:14;21.40;99.90
16198;DHT22;8206;51.440;6.914;2022-09-09T14:22:44;21.60;99.90
16198;DHT22;8206;51.440;6.914;2022-09-09T14:25:11;21.80;99.90
16198;DHT22;8206;51.440;6.914;2022-09-09T14:27:38;22.20;99.90
16198;DHT22;8206;51.440;6.914;2022-09-09T14:30:06;22.30;99.90
16198;DHT22;8206;51.440;6.914;2022-09-09T14:32:33;22.40;99.90
16198;DHT22;8206;51.440;6.914;2022-09-09T14:35:00;22.20;99.90
16198;DHT22;8206;51.440;6.914;2022-09-09T14:37:27;22.00;99.90
16198;DHT22;8206;51.440;6.914;2022-09-09T14:39:57;22.00;99.90
16198;DHT22;8206;51.440;6.914;2022-09-09T14:42:24;22.00;99.90
16198;DHT22;8206;51.440;6.914;2022-09-09T14:44:52;22.00;99.90
16198;DHT22;8206;51.440;6.914;2022-09-09T14:47:18;21.70;99.90
16198;DHT22;8206;51.440;6.914;2022-09-09T14:49:45;21.30;99.90
16198;DHT22;8206;51.440;6.914;2022-09-09T14:52:14;20.90;99.90
16198;DHT22;8206;51.440;6.914;2022-09-09T14:54:41;20.50;99.90
16198;DHT22;8206;51.440;6.914;2022-09-09T14:57:09;19.70;99.90
16198;DHT22;8206;51.440;6.914;2022-09-09T14:59:36;19.00;99.90
16198;DHT22;8206;51.440;6.914;2022-09-09T15:02:03;18.50;99.90
16198;DHT22;8206;51.440;6.914;2022-09-09T15:04:30;18.00;99.90
16198;DHT22;8206;51.440;6.914;2022-09-09T15:06:56;17.70;99.90
16198;DHT22;8206;51.440;6.914;2022-09-09T15:09:24;17.50;99.90
16198;DHT22;8206;51.440;6.914;2022-09-09T15:11:50;17.40;99.90
16198;DHT22;8206;51.440;6.914;2022-09-09T15:14:19;17.40;99.90
16198;DHT22;8206;51.440;6.914;2022-09-09T15:16:46;17.30;99.90
16198;DHT22;8206;51.440;6.914;2022-09-09T15:19:12;17.30;99.90
16198;DHT22;8206;51.440;6.914;2022-09-09T15:21:39;17.50;99.90
16198;DHT22;8206;51.440;6.914;2022-09-09T15:24:06;17.60;99.90
16198;DHT22;8206;51.440;6.914;2022-09-09T15:26:33;17.70;99.90
16198;DHT22;8206;51.440;6.914;2022-09-09T15:29:00;17.70;99.90
16198;DHT22;8206;51.440;6.914;2022-09-09T15:31:30;17.60;99.90
16198;DHT22;8206;51.440;6.914;2022-09-09T15:33:59;17.60;99.90
16198;DHT22;8206;51.440;6.914;2022-09-09T15:36:28;17.50;99.90
16198;DHT22;8206;51.440;6.914;2022-09-09T15:38:56;17.40;99.90
16198;DHT22;8206;51.440;6.914;2022-09-09T15:41:23;17.50;99.90
16198;DHT22;8206;51.440;6.914;2022-09-09T15:43:52;17.60;99.90
16198;DHT22;8206;51.440;6.914;2022-09-09T15:46:30;17.60;99.90
16198;DHT22;8206;51.440;6.914;2022-09-09T15:48:58;17.50;99.90
16198;DHT22;8206;51.440;6.914;2022-09-09T15:51:29;17.70;99.90
16198;DHT22;8206;51.440;6.914;2022-09-09T15:53:56;17.90;99.90
16198;DHT22;8206;51.440;6.914;2022-09-09T15:56:23;18.00;99.90
16198;DHT22;8206;51.440;6.914;2022-09-09T15:58:50;18.10;99.90
16198;DHT22;8206;51.440;6.914;2022-09-09T16:01:18;18.30;99.90
16198;DHT22;8206;51.440;6.914;2022-09-09T16:03:46;18.50;99.90
16198;DHT22;8206;51.440;6.914;2022-09-09T16:06:16;18.70;99.90
16198;DHT22;8206;51.440;6.914;2022-09-09T16:08:45;18.90;99.90
16198;DHT22;8206;51.440;6.914;2022-09-09T16:11:16;19.00;99.90